sensor_id;sensor_type;location;lat;lon;timestamp;P1;durP1;ratioP1;P2;durP2;ratioP2
37529;SDS011;23374;52.758;6.872;2023-05-10T00:02:06;7.67;;;4.87;;
37529;SDS011;23374;52.758;6.872;2023-05-10T00:04:26;8.97;;;6.03;;
37529;SDS011;23374;52.758;6.872;2023-05-10T00:06:47;8.87;;;5.60;;
37529;SDS011;23374;52.758;6.872;2023-05-10T00:09:08;10.20;;;6.20;;
37529;SDS011;23374;52.758;6.872;2023-05-10T00:11:28;9.37;;;6.30;;
37529;SDS011;23374;52.758;6.872;2023-05-10T00:13:48;10.93;;;6.90;;
37529;SDS011;23374;52.758;6.872;2023-05-10T00:16:09;9.43;;;6.13;;
37529;SDS011;23374;52.758;6.872;2023-05-10T00:18:30;8.57;;;5.87;;
37529;SDS011;23374;52.758;6.872;2023-05-10T00:20:50;9.27;;;6.20;;
37529;SDS011;23374;52.758;6.872;2023-05-10T00:23:10;11.67;;;6.93;;
37529;SDS011;23374;52.758;6.872;2023-05-10T00:25:31;8.57;;;5.77;;
37529;SDS011;23374;52.758;6.872;2023-05-10T00:27:51;9.60;;;6.37;;
37529;SDS011;23374;52.758;6.872;2023-05-10T00:30:14;11.80;;;6.07;;
37529;SDS011;23374;52.758;6.872;2023-05-10T00:32:35;10.27;;;5.93;;
37529;SDS011;23374;52.758;6.872;2023-05-10T00:34:56;11.03;;;6.10;;
37529;SDS011;23374;52.758;6.872;2023-05-10T00:37:17;10.00;;;5.50;;
37529;SDS011;23374;52.758;6.872;2023-05-10T00:39:37;9.63;;;6.20;;
37529;SDS011;23374;52.758;6.872;2023-05-10T00:41:57;10.67;;;6.37;;
37529;SDS011;23374;52.758;6.872;2023-05-10T00:44:17;10.63;;;6.30;;
37529;SDS011;23374;52.758;6.872;2023-05-10T00:46:38;9.10;;;6.00;;
37529;SDS011;23374;52.758;6.872;2023-05-10T00:48:58;10.83;;;5.90;;
37529;SDS011;23374;52.758;6.872;2023-05-10T00:51:19;10.80;;;6.17;;
37529;SDS011;23374;52.758;6.872;2023-05-10T00:53:40;9.63;;;5.77;;
37529;SDS011;23374;52.758;6.872;2023-05-10T00:56:01;12.10;;;6.47;;
37529;SDS011;23374;52.758;6.872;2023-05-10T00:58:23;9.23;;;5.70;;
37529;SDS011;23374;52.758;6.872;2023-05-10T01:00:47;10.70;;;6.27;;
37529;SDS011;23374;52.758;6.872;2023-05-10T01:03:10;12.93;;;6.17;;
37529;SDS011;23374;52.758;6.872;2023-05-10T01:05:31;9.67;;;5.60;;
37529;SDS011;23374;52.758;6.872;2023-05-10T01:07:52;10.23;;;5.80;;
37529;SDS011;23374;52.758;6.872;2023-05-10T01:10:13;11.17;;;6.10;;
37529;SDS011;23374;52.758;6.872;2023-05-10T01:12:38;11.73;;;6.73;;
37529;SDS011;23374;52.758;6.872;2023-05-10T01:15:00;13.27;;;6.20;;
37529;SDS011;23374;52.758;6.872;2023-05-10T01:17:22;12.43;;;6.90;;
37529;SDS011;23374;52.758;6.872;2023-05-10T01:19:42;10.40;;;6.10;;
37529;SDS011;23374;52.758;6.872;2023-05-10T01:30:32;12.10;;;6.37;;
37529;SDS011;23374;52.758;6.872;2023-05-10T01:33:19;13.30;;;7.00;;
37529;SDS011;23374;52.758;6.872;2023-05-10T01:37:52;14.43;;;6.53;;
37529;SDS011;23374;52.758;6.872;2023-05-10T01:40:32;13.00;;;7.03;;
37529;SDS011;23374;52.758;6.872;2023-05-10T01:43:01;10.77;;;6.00;;
37529;SDS011;23374;52.758;6.872;2023-05-10T01:45:45;11.17;;;7.17;;
37529;SDS011;23374;52.758;6.872;2023-05-10T01:48:16;12.37;;;6.60;;
37529;SDS011;23374;52.758;6.872;2023-05-10T01:50:41;15.60;;;7.30;;
37529;SDS011;23374;52.758;6.872;2023-05-10T01:53:02;12.07;;;7.03;;
37529;SDS011;23374;52.758;6.872;2023-05-10T01:55:32;12.73;;;6.87;;
37529;SDS011;23374;52.758;6.872;2023-05-10T01:58:08;12.63;;;6.60;;
37529;SDS011;23374;52.758;6.872;2023-05-10T02:00:33;12.03;;;6.87;;
37529;SDS011;23374;52.758;6.872;2023-05-10T02:02:55;13.17;;;6.97;;
37529;SDS011;23374;52.758;6.872;2023-05-10T02:05:16;12.50;;;7.27;;
37529;SDS011;23374;52.758;6.872;2023-05-10T02:07:38;11.73;;;6.37;;
37529;SDS011;23374;52.758;6.872;2023-05-10T02:10:00;10.50;;;6.47;;
37529;SDS011;23374;52.758;6.872;2023-05-10T02:12:26;10.17;;;5.83;;
37529;SDS011;23374;52.758;6.872;2023-05-10T02:14:48;10.93;;;6.47;;
37529;SDS011;23374;52.758;6.872;2023-05-10T02:17:10;9.77;;;6.03;;
37529;SDS011;23374;52.758;6.872;2023-05-10T02:19:32;10.50;;;5.60;;
37529;SDS011;23374;52.758;6.872;2023-05-10T02:21:55;15.13;;;6.40;;
37529;SDS011;23374;52.758;6.872;2023-05-10T02:24:18;11.40;;;5.60;;
37529;SDS011;23374;52.758;6.872;2023-05-10T02:26:40;10.20;;;5.87;;
37529;SDS011;23374;52.758;6.872;2023-05-10T02:29:02;10.97;;;5.47;;
37529;SDS011;23374;52.758;6.872;2023-05-10T02:31:26;8.77;;;5.00;;
37529;SDS011;23374;52.758;6.872;2023-05-10T02:33:47;11.57;;;5.33;;
37529;SDS011;23374;52.758;6.872;2023-05-10T02:36:08;12.10;;;5.43;;
37529;SDS011;23374;52.758;6.872;2023-05-10T02:38:31;10.87;;;5.83;;
37529;SDS011;23374;52.758;6.872;2023-05-10T02:40:54;11.77;;;5.63;;
37529;SDS011;23374;52.758;6.872;2023-05-10T02:43:16;11.23;;;5.17;;
37529;SDS011;23374;52.758;6.872;2023-05-10T02:45:38;10.30;;;5.53;;
37529;SDS011;23374;52.758;6.872;2023-05-10T02:48:00;8.83;;;5.07;;
37529;SDS011;23374;52.758;6.872;2023-05-10T02:50:21;9.90;;;4.93;;
37529;SDS011;23374;52.758;6.872;2023-05-10T02:52:44;9.73;;;5.17;;
37529;SDS011;23374;52.758;6.872;2023-05-10T02:55:09;8.03;;;4.70;;
37529;SDS011;23374;52.758;6.872;2023-05-10T02:57:34;11.00;;;4.73;;
37529;SDS011;23374;52.758;6.872;2023-05-10T02:59:58;9.43;;;4.83;;
37529;SDS011;23374;52.758;6.872;2023-05-10T03:02:20;7.83;;;4.23;;
37529;SDS011;23374;52.758;6.872;2023-05-10T03:04:41;8.37;;;4.83;;
37529;SDS011;23374;52.758;6.872;2023-05-10T03:07:01;8.17;;;4.80;;
37529;SDS011;23374;52.758;6.872;2023-05-10T03:09:22;8.67;;;4.87;;
37529;SDS011;23374;52.758;6.872;2023-05-10T03:12:33;6.70;;;4.53;;
37529;SDS011;23374;52.758;6.872;2023-05-10T03:15:38;7.87;;;4.57;;
37529;SDS011;23374;52.758;6.872;2023-05-10T03:19:08;9.83;;;4.60;;
37529;SDS011;23374;52.758;6.872;2023-05-10T03:23:00;7.27;;;4.53;;
37529;SDS011;23374;52.758;6.872;2023-05-10T03:25:31;7.37;;;4.60;;
37529;SDS011;23374;52.758;6.872;2023-05-10T03:27:53;9.13;;;4.53;;
37529;SDS011;23374;52.758;6.872;2023-05-10T03:30:16;9.77;;;4.67;;
37529;SDS011;23374;52.758;6.872;2023-05-10T03:32:38;9.40;;;4.90;;
37529;SDS011;23374;52.758;6.872;2023-05-10T03:34:59;8.60;;;4.90;;
37529;SDS011;23374;52.758;6.872;2023-05-10T03:37:21;11.40;;;4.90;;
37529;SDS011;23374;52.758;6.872;2023-05-10T03:39:43;10.33;;;4.70;;
37529;SDS011;23374;52.758;6.872;2023-05-10T03:42:04;8.07;;;4.57;;
37529;SDS011;23374;52.758;6.872;2023-05-10T03:44:25;8.43;;;4.83;;
37529;SDS011;23374;52.758;6.872;2023-05-10T03:46:46;11.00;;;4.80;;
37529;SDS011;23374;52.758;6.872;2023-05-10T03:49:06;8.53;;;4.47;;
37529;SDS011;23374;52.758;6.872;2023-05-10T03:51:26;7.97;;;4.13;;
37529;SDS011;23374;52.758;6.872;2023-05-10T03:53:48;8.53;;;4.83;;
37529;SDS011;23374;52.758;6.872;2023-05-10T03:56:09;9.80;;;4.93;;
37529;SDS011;23374;52.758;6.872;2023-05-10T03:58:29;8.47;;;4.80;;
37529;SDS011;23374;52.758;6.872;2023-05-10T04:00:51;10.70;;;5.03;;
37529;SDS011;23374;52.758;6.872;2023-05-10T04:03:12;9.97;;;4.60;;
37529;SDS011;23374;52.758;6.872;2023-05-10T04:05:33;8.80;;;4.97;;
37529;SDS011;23374;52.758;6.872;2023-05-10T04:07:54;8.47;;;4.67;;
37529;SDS011;23374;52.758;6.872;2023-05-10T04:10:15;9.77;;;5.30;;
37529;SDS011;23374;52.758;6.872;2023-05-10T04:12:36;7.37;;;4.60;;
37529;SDS011;23374;52.758;6.872;2023-05-10T04:14:56;10.00;;;4.93;;
37529;SDS011;23374;52.758;6.872;2023-05-10T04:17:17;8.57;;;4.97;;
37529;SDS011;23374;52.758;6.872;2023-05-10T04:19:37;10.23;;;4.80;;
37529;SDS011;23374;52.758;6.872;2023-05-10T04:21:58;7.07;;;4.77;;
37529;SDS011;23374;52.758;6.872;2023-05-10T04:24:18;8.70;;;5.07;;
37529;SDS011;23374;52.758;6.872;2023-05-10T04:26:39;10.17;;;5.03;;
37529;SDS011;23374;52.758;6.872;2023-05-10T04:29:00;10.13;;;5.50;;
37529;SDS011;23374;52.758;6.872;2023-05-10T04:31:20;11.03;;;5.77;;
37529;SDS011;23374;52.758;6.872;2023-05-10T04:33:42;8.77;;;5.30;;
37529;SDS011;23374;52.758;6.872;2023-05-10T04:36:03;10.27;;;5.80;;
37529;SDS011;23374;52.758;6.872;2023-05-10T04:38:24;9.37;;;5.67;;
37529;SDS011;23374;52.758;6.872;2023-05-10T04:40:46;8.50;;;5.23;;
37529;SDS011;23374;52.758;6.872;2023-05-10T04:43:07;11.90;;;6.23;;
37529;SDS011;23374;52.758;6.872;2023-05-10T04:45:28;9.20;;;5.10;;
37529;SDS011;23374;52.758;6.872;2023-05-10T04:47:48;10.77;;;5.87;;
37529;SDS011;23374;52.758;6.872;2023-05-10T04:50:09;9.80;;;5.17;;
37529;SDS011;23374;52.758;6.872;2023-05-10T04:52:30;12.00;;;5.53;;
37529;SDS011;23374;52.758;6.872;2023-05-10T04:54:50;10.20;;;5.37;;
37529;SDS011;23374;52.758;6.872;2023-05-10T04:57:11;9.47;;;5.40;;
37529;SDS011;23374;52.758;6.872;2023-05-10T04:59:32;9.93;;;5.80;;
37529;SDS011;23374;52.758;6.872;2023-05-10T05:01:55;10.73;;;6.20;;
37529;SDS011;23374;52.758;6.872;2023-05-10T05:04:16;14.43;;;6.43;;
37529;SDS011;23374;52.758;6.872;2023-05-10T05:06:36;11.20;;;5.93;;
37529;SDS011;23374;52.758;6.872;2023-05-10T05:08:56;14.63;;;6.27;;
37529;SDS011;23374;52.758;6.872;2023-05-10T05:11:18;11.93;;;5.47;;
37529;SDS011;23374;52.758;6.872;2023-05-10T05:13:38;14.87;;;6.37;;
37529;SDS011;23374;52.758;6.872;2023-05-10T05:16:01;11.67;;;6.17;;
37529;SDS011;23374;52.758;6.872;2023-05-10T05:18:22;10.93;;;6.03;;
37529;SDS011;23374;52.758;6.872;2023-05-10T05:20:42;10.83;;;5.63;;
37529;SDS011;23374;52.758;6.872;2023-05-10T05:23:03;11.40;;;5.80;;
37529;SDS011;23374;52.758;6.872;2023-05-10T05:25:23;8.10;;;5.23;;
37529;SDS011;23374;52.758;6.872;2023-05-10T05:27:44;10.57;;;5.37;;
37529;SDS011;23374;52.758;6.872;2023-05-10T05:30:06;8.70;;;4.90;;
37529;SDS011;23374;52.758;6.872;2023-05-10T05:32:27;9.00;;;4.63;;
37529;SDS011;23374;52.758;6.872;2023-05-10T05:34:47;12.97;;;4.73;;
37529;SDS011;23374;52.758;6.872;2023-05-10T05:37:12;7.67;;;3.73;;
37529;SDS011;23374;52.758;6.872;2023-05-10T05:39:37;11.53;;;4.60;;
37529;SDS011;23374;52.758;6.872;2023-05-10T05:41:58;11.70;;;4.40;;
37529;SDS011;23374;52.758;6.872;2023-05-10T05:44:18;10.83;;;4.67;;
37529;SDS011;23374;52.758;6.872;2023-05-10T05:46:40;13.83;;;4.77;;
37529;SDS011;23374;52.758;6.872;2023-05-10T05:49:00;8.23;;;4.60;;
37529;SDS011;23374;52.758;6.872;2023-05-10T05:51:21;10.23;;;5.00;;
37529;SDS011;23374;52.758;6.872;2023-05-10T05:53:42;8.83;;;4.77;;
37529;SDS011;23374;52.758;6.872;2023-05-10T05:56:04;10.23;;;4.20;;
37529;SDS011;23374;52.758;6.872;2023-05-10T05:58:25;12.27;;;4.70;;
37529;SDS011;23374;52.758;6.872;2023-05-10T06:00:45;11.43;;;4.73;;
37529;SDS011;23374;52.758;6.872;2023-05-10T06:03:06;7.97;;;4.30;;
37529;SDS011;23374;52.758;6.872;2023-05-10T06:05:26;11.10;;;4.03;;
37529;SDS011;23374;52.758;6.872;2023-05-10T06:07:47;9.30;;;4.40;;
37529;SDS011;23374;52.758;6.872;2023-05-10T06:10:09;6.03;;;3.77;;
37529;SDS011;23374;52.758;6.872;2023-05-10T06:12:29;9.53;;;4.17;;
37529;SDS011;23374;52.758;6.872;2023-05-10T06:14:50;8.93;;;4.50;;
37529;SDS011;23374;52.758;6.872;2023-05-10T06:17:11;10.33;;;4.10;;
37529;SDS011;23374;52.758;6.872;2023-05-10T06:19:32;10.43;;;5.50;;
37529;SDS011;23374;52.758;6.872;2023-05-10T06:21:53;10.87;;;4.87;;
37529;SDS011;23374;52.758;6.872;2023-05-10T06:24:14;12.43;;;5.40;;
37529;SDS011;23374;52.758;6.872;2023-05-10T06:26:35;13.20;;;4.80;;
37529;SDS011;23374;52.758;6.872;2023-05-10T06:28:56;8.93;;;4.20;;
37529;SDS011;23374;52.758;6.872;2023-05-10T06:31:17;11.07;;;4.90;;
37529;SDS011;23374;52.758;6.872;2023-05-10T06:33:38;9.30;;;4.87;;
37529;SDS011;23374;52.758;6.872;2023-05-10T06:35:58;11.53;;;4.83;;
37529;SDS011;23374;52.758;6.872;2023-05-10T06:38:19;8.70;;;4.37;;
37529;SDS011;23374;52.758;6.872;2023-05-10T06:40:43;10.70;;;4.53;;
37529;SDS011;23374;52.758;6.872;2023-05-10T06:43:04;8.77;;;4.00;;
37529;SDS011;23374;52.758;6.872;2023-05-10T06:45:25;8.57;;;4.77;;
37529;SDS011;23374;52.758;6.872;2023-05-10T06:47:46;8.20;;;4.13;;
37529;SDS011;23374;52.758;6.872;2023-05-10T06:50:08;10.30;;;4.60;;
37529;SDS011;23374;52.758;6.872;2023-05-10T06:52:31;10.50;;;4.77;;
37529;SDS011;23374;52.758;6.872;2023-05-10T06:54:51;8.90;;;4.27;;
37529;SDS011;23374;52.758;6.872;2023-05-10T06:57:12;9.97;;;4.70;;
37529;SDS011;23374;52.758;6.872;2023-05-10T06:59:32;13.23;;;4.97;;
37529;SDS011;23374;52.758;6.872;2023-05-10T07:01:53;12.07;;;4.10;;
37529;SDS011;23374;52.758;6.872;2023-05-10T07:04:14;8.73;;;4.43;;
37529;SDS011;23374;52.758;6.872;2023-05-10T07:06:35;8.10;;;4.07;;
37529;SDS011;23374;52.758;6.872;2023-05-10T07:08:57;7.37;;;3.93;;
37529;SDS011;23374;52.758;6.872;2023-05-10T07:11:17;7.37;;;3.70;;
37529;SDS011;23374;52.758;6.872;2023-05-10T07:13:38;7.13;;;3.37;;
37529;SDS011;23374;52.758;6.872;2023-05-10T07:16:01;5.93;;;3.93;;
37529;SDS011;23374;52.758;6.872;2023-05-10T07:18:22;7.73;;;3.90;;
37529;SDS011;23374;52.758;6.872;2023-05-10T07:20:43;8.03;;;3.70;;
37529;SDS011;23374;52.758;6.872;2023-05-10T07:23:04;7.07;;;4.30;;
37529;SDS011;23374;52.758;6.872;2023-05-10T07:25:25;9.07;;;3.77;;
37529;SDS011;23374;52.758;6.872;2023-05-10T07:27:46;7.47;;;3.40;;
37529;SDS011;23374;52.758;6.872;2023-05-10T07:30:08;8.97;;;3.70;;
37529;SDS011;23374;52.758;6.872;2023-05-10T07:32:29;7.83;;;3.10;;
37529;SDS011;23374;52.758;6.872;2023-05-10T07:34:50;6.27;;;3.40;;
37529;SDS011;23374;52.758;6.872;2023-05-10T07:37:11;6.03;;;3.57;;
37529;SDS011;23374;52.758;6.872;2023-05-10T07:39:31;6.57;;;3.37;;
37529;SDS011;23374;52.758;6.872;2023-05-10T07:41:52;5.37;;;2.50;;
37529;SDS011;23374;52.758;6.872;2023-05-10T07:44:12;6.10;;;2.80;;
37529;SDS011;23374;52.758;6.872;2023-05-10T07:46:33;6.40;;;2.70;;
37529;SDS011;23374;52.758;6.872;2023-05-10T07:48:54;7.17;;;3.40;;
37529;SDS011;23374;52.758;6.872;2023-05-10T07:51:15;3.73;;;2.40;;
37529;SDS011;23374;52.758;6.872;2023-05-10T07:53:37;6.03;;;3.20;;
37529;SDS011;23374;52.758;6.872;2023-05-10T07:55:58;6.83;;;3.30;;
37529;SDS011;23374;52.758;6.872;2023-05-10T07:58:19;6.00;;;2.80;;
37529;SDS011;23374;52.758;6.872;2023-05-10T08:00:39;5.80;;;2.73;;
37529;SDS011;23374;52.758;6.872;2023-05-10T08:03:01;5.67;;;3.13;;
37529;SDS011;23374;52.758;6.872;2023-05-10T08:05:23;6.70;;;3.07;;
37529;SDS011;23374;52.758;6.872;2023-05-10T08:07:43;6.00;;;3.03;;
37529;SDS011;23374;52.758;6.872;2023-05-10T08:10:06;5.03;;;3.43;;
37529;SDS011;23374;52.758;6.872;2023-05-10T08:12:27;8.40;;;3.40;;
37529;SDS011;23374;52.758;6.872;2023-05-10T08:14:48;7.33;;;2.83;;
37529;SDS011;23374;52.758;6.872;2023-05-10T08:17:08;5.47;;;2.70;;
37529;SDS011;23374;52.758;6.872;2023-05-10T08:19:28;6.03;;;2.77;;
37529;SDS011;23374;52.758;6.872;2023-05-10T08:21:49;5.03;;;2.83;;
37529;SDS011;23374;52.758;6.872;2023-05-10T08:24:10;6.87;;;3.43;;
37529;SDS011;23374;52.758;6.872;2023-05-10T08:26:30;4.83;;;2.77;;
37529;SDS011;23374;52.758;6.872;2023-05-10T08:28:52;4.70;;;2.87;;
37529;SDS011;23374;52.758;6.872;2023-05-10T08:31:13;5.93;;;2.90;;
37529;SDS011;23374;52.758;6.872;2023-05-10T08:33:34;5.77;;;2.60;;
37529;SDS011;23374;52.758;6.872;2023-05-10T08:35:55;5.50;;;2.83;;
37529;SDS011;23374;52.758;6.872;2023-05-10T08:38:16;5.70;;;2.80;;
37529;SDS011;23374;52.758;6.872;2023-05-10T08:40:38;4.73;;;2.87;;
37529;SDS011;23374;52.758;6.872;2023-05-10T08:43:08;5.63;;;2.83;;
37529;SDS011;23374;52.758;6.872;2023-05-10T08:45:32;5.33;;;2.40;;
37529;SDS011;23374;52.758;6.872;2023-05-10T08:47:57;3.50;;;1.93;;
37529;SDS011;23374;52.758;6.872;2023-05-10T08:50:20;2.97;;;1.93;;
37529;SDS011;23374;52.758;6.872;2023-05-10T08:52:41;5.30;;;2.20;;
37529;SDS011;23374;52.758;6.872;2023-05-10T08:55:02;5.33;;;2.03;;
37529;SDS011;23374;52.758;6.872;2023-05-10T08:57:23;3.73;;;2.00;;
37529;SDS011;23374;52.758;6.872;2023-05-10T08:59:43;4.30;;;2.03;;
37529;SDS011;23374;52.758;6.872;2023-05-10T09:02:05;4.63;;;2.13;;
37529;SDS011;23374;52.758;6.872;2023-05-10T09:04:29;4.87;;;2.60;;
37529;SDS011;23374;52.758;6.872;2023-05-10T09:06:51;5.03;;;2.20;;
37529;SDS011;23374;52.758;6.872;2023-05-10T09:09:11;2.50;;;1.70;;
37529;SDS011;23374;52.758;6.872;2023-05-10T09:11:32;2.33;;;1.77;;
37529;SDS011;23374;52.758;6.872;2023-05-10T09:13:54;3.30;;;2.00;;
37529;SDS011;23374;52.758;6.872;2023-05-10T09:16:15;3.57;;;2.00;;
37529;SDS011;23374;52.758;6.872;2023-05-10T09:18:36;3.40;;;1.67;;
37529;SDS011;23374;52.758;6.872;2023-05-10T09:20:56;7.13;;;1.97;;
37529;SDS011;23374;52.758;6.872;2023-05-10T09:23:17;3.73;;;1.90;;
37529;SDS011;23374;52.758;6.872;2023-05-10T09:25:41;3.63;;;2.23;;
37529;SDS011;23374;52.758;6.872;2023-05-10T09:28:03;6.13;;;2.40;;
37529;SDS011;23374;52.758;6.872;2023-05-10T09:30:29;4.03;;;2.00;;
37529;SDS011;23374;52.758;6.872;2023-05-10T09:32:50;3.80;;;2.50;;
37529;SDS011;23374;52.758;6.872;2023-05-10T09:35:15;4.43;;;1.97;;
37529;SDS011;23374;52.758;6.872;2023-05-10T09:37:36;4.37;;;2.13;;
37529;SDS011;23374;52.758;6.872;2023-05-10T09:40:06;3.17;;;1.97;;
37529;SDS011;23374;52.758;6.872;2023-05-10T09:42:35;4.93;;;2.37;;
37529;SDS011;23374;52.758;6.872;2023-05-10T09:45:00;4.53;;;2.53;;
37529;SDS011;23374;52.758;6.872;2023-05-10T09:47:25;3.57;;;2.23;;
37529;SDS011;23374;52.758;6.872;2023-05-10T09:49:50;4.43;;;2.17;;
37529;SDS011;23374;52.758;6.872;2023-05-10T09:52:16;6.10;;;1.97;;
37529;SDS011;23374;52.758;6.872;2023-05-10T09:54:36;5.03;;;2.53;;
37529;SDS011;23374;52.758;6.872;2023-05-10T09:56:57;3.33;;;1.83;;
37529;SDS011;23374;52.758;6.872;2023-05-10T09:59:18;4.70;;;2.30;;
37529;SDS011;23374;52.758;6.872;2023-05-10T10:01:39;3.77;;;2.27;;
37529;SDS011;23374;52.758;6.872;2023-05-10T10:04:04;4.23;;;2.60;;
37529;SDS011;23374;52.758;6.872;2023-05-10T10:06:25;5.37;;;2.80;;
37529;SDS011;23374;52.758;6.872;2023-05-10T10:08:46;5.00;;;2.53;;
37529;SDS011;23374;52.758;6.872;2023-05-10T10:11:06;4.73;;;2.57;;
37529;SDS011;23374;52.758;6.872;2023-05-10T10:13:27;5.10;;;2.60;;
37529;SDS011;23374;52.758;6.872;2023-05-10T10:15:49;4.07;;;2.40;;
37529;SDS011;23374;52.758;6.872;2023-05-10T10:18:13;4.93;;;2.50;;
37529;SDS011;23374;52.758;6.872;2023-05-10T10:20:37;6.57;;;3.03;;
37529;SDS011;23374;52.758;6.872;2023-05-10T10:23:00;3.57;;;2.80;;
37529;SDS011;23374;52.758;6.872;2023-05-10T10:25:22;4.60;;;2.80;;
37529;SDS011;23374;52.758;6.872;2023-05-10T10:28:04;6.30;;;3.17;;
37529;SDS011;23374;52.758;6.872;2023-05-10T10:30:47;6.33;;;3.03;;
37529;SDS011;23374;52.758;6.872;2023-05-10T10:36:47;5.83;;;3.07;;
37529;SDS011;23374;52.758;6.872;2023-05-10T10:39:09;5.87;;;2.77;;
37529;SDS011;23374;52.758;6.872;2023-05-10T10:41:35;5.33;;;2.90;;
37529;SDS011;23374;52.758;6.872;2023-05-10T10:47:21;6.93;;;3.00;;
37529;SDS011;23374;52.758;6.872;2023-05-10T10:52:45;5.87;;;3.00;;
37529;SDS011;23374;52.758;6.872;2023-05-10T10:57:53;4.03;;;2.60;;
37529;SDS011;23374;52.758;6.872;2023-05-10T11:00:33;6.93;;;3.10;;
37529;SDS011;23374;52.758;6.872;2023-05-10T11:03:13;7.60;;;3.47;;
37529;SDS011;23374;52.758;6.872;2023-05-10T11:05:53;6.80;;;3.40;;
37529;SDS011;23374;52.758;6.872;2023-05-10T11:08:28;5.43;;;3.60;;
37529;SDS011;23374;52.758;6.872;2023-05-10T11:13:41;6.70;;;3.90;;
37529;SDS011;23374;52.758;6.872;2023-05-10T11:17:26;7.40;;;3.87;;
37529;SDS011;23374;52.758;6.872;2023-05-10T11:20:10;6.20;;;3.10;;
37529;SDS011;23374;52.758;6.872;2023-05-10T11:22:51;6.90;;;3.90;;
37529;SDS011;23374;52.758;6.872;2023-05-10T11:25:13;10.43;;;3.73;;
37529;SDS011;23374;52.758;6.872;2023-05-10T11:27:37;4.93;;;3.60;;
37529;SDS011;23374;52.758;6.872;2023-05-10T11:29:57;6.97;;;3.80;;
37529;SDS011;23374;52.758;6.872;2023-05-10T11:32:18;6.00;;;3.27;;
37529;SDS011;23374;52.758;6.872;2023-05-10T11:34:39;7.00;;;3.20;;
37529;SDS011;23374;52.758;6.872;2023-05-10T11:36:59;7.00;;;3.70;;
37529;SDS011;23374;52.758;6.872;2023-05-10T11:39:21;6.20;;;3.40;;
37529;SDS011;23374;52.758;6.872;2023-05-10T11:41:48;6.67;;;3.50;;
37529;SDS011;23374;52.758;6.872;2023-05-10T11:44:09;5.53;;;3.00;;
37529;SDS011;23374;52.758;6.872;2023-05-10T11:46:30;4.40;;;3.10;;
37529;SDS011;23374;52.758;6.872;2023-05-10T11:48:51;6.90;;;3.67;;
37529;SDS011;23374;52.758;6.872;2023-05-10T11:51:24;7.93;;;3.97;;
37529;SDS011;23374;52.758;6.872;2023-05-10T11:53:44;6.60;;;3.90;;
37529;SDS011;23374;52.758;6.872;2023-05-10T11:56:06;6.17;;;4.07;;
37529;SDS011;23374;52.758;6.872;2023-05-10T11:58:27;6.60;;;3.77;;
37529;SDS011;23374;52.758;6.872;2023-05-10T12:00:47;5.67;;;3.70;;
37529;SDS011;23374;52.758;6.872;2023-05-10T12:03:08;5.50;;;2.97;;
37529;SDS011;23374;52.758;6.872;2023-05-10T12:05:32;5.97;;;3.20;;
37529;SDS011;23374;52.758;6.872;2023-05-10T12:08:10;6.30;;;3.23;;
37529;SDS011;23374;52.758;6.872;2023-05-10T12:10:34;6.23;;;3.07;;
37529;SDS011;23374;52.758;6.872;2023-05-10T12:12:56;5.17;;;2.90;;
37529;SDS011;23374;52.758;6.872;2023-05-10T12:15:23;5.33;;;3.37;;
37529;SDS011;23374;52.758;6.872;2023-05-10T12:17:44;6.03;;;3.03;;
37529;SDS011;23374;52.758;6.872;2023-05-10T12:20:19;5.80;;;3.20;;
37529;SDS011;23374;52.758;6.872;2023-05-10T12:22:43;7.27;;;3.33;;
37529;SDS011;23374;52.758;6.872;2023-05-10T12:25:14;7.07;;;3.53;;
37529;SDS011;23374;52.758;6.872;2023-05-10T12:27:34;6.53;;;3.70;;
37529;SDS011;23374;52.758;6.872;2023-05-10T12:29:54;6.90;;;3.90;;
37529;SDS011;23374;52.758;6.872;2023-05-10T12:32:15;5.77;;;3.80;;
37529;SDS011;23374;52.758;6.872;2023-05-10T12:34:35;6.37;;;3.57;;
37529;SDS011;23374;52.758;6.872;2023-05-10T12:36:57;9.40;;;3.90;;
37529;SDS011;23374;52.758;6.872;2023-05-10T12:39:18;5.50;;;3.60;;
37529;SDS011;23374;52.758;6.872;2023-05-10T12:41:38;5.50;;;3.50;;
37529;SDS011;23374;52.758;6.872;2023-05-10T12:43:58;5.37;;;3.27;;
37529;SDS011;23374;52.758;6.872;2023-05-10T12:46:18;5.90;;;3.70;;
37529;SDS011;23374;52.758;6.872;2023-05-10T12:48:40;6.70;;;3.10;;
37529;SDS011;23374;52.758;6.872;2023-05-10T12:51:01;7.03;;;3.60;;
37529;SDS011;23374;52.758;6.872;2023-05-10T12:53:22;7.83;;;3.60;;
37529;SDS011;23374;52.758;6.872;2023-05-10T12:55:43;5.87;;;3.03;;
37529;SDS011;23374;52.758;6.872;2023-05-10T12:58:04;5.80;;;3.33;;
37529;SDS011;23374;52.758;6.872;2023-05-10T13:00:25;6.00;;;3.13;;
37529;SDS011;23374;52.758;6.872;2023-05-10T13:02:45;7.53;;;2.73;;
37529;SDS011;23374;52.758;6.872;2023-05-10T13:05:06;5.00;;;3.03;;
37529;SDS011;23374;52.758;6.872;2023-05-10T13:07:27;5.50;;;2.83;;
37529;SDS011;23374;52.758;6.872;2023-05-10T13:09:47;5.10;;;3.03;;
37529;SDS011;23374;52.758;6.872;2023-05-10T13:12:07;5.20;;;2.97;;
37529;SDS011;23374;52.758;6.872;2023-05-10T13:14:29;6.63;;;3.60;;
37529;SDS011;23374;52.758;6.872;2023-05-10T13:16:49;5.13;;;2.80;;
37529;SDS011;23374;52.758;6.872;2023-05-10T13:19:10;5.67;;;3.27;;
37529;SDS011;23374;52.758;6.872;2023-05-10T13:21:31;5.63;;;3.57;;
37529;SDS011;23374;52.758;6.872;2023-05-10T13:23:51;8.57;;;3.67;;
37529;SDS011;23374;52.758;6.872;2023-05-10T13:26:12;6.70;;;3.80;;
37529;SDS011;23374;52.758;6.872;2023-05-10T13:28:32;7.10;;;4.00;;
37529;SDS011;23374;52.758;6.872;2023-05-10T13:30:53;5.83;;;3.43;;
37529;SDS011;23374;52.758;6.872;2023-05-10T13:33:13;6.63;;;3.43;;
37529;SDS011;23374;52.758;6.872;2023-05-10T13:35:34;7.17;;;3.37;;
37529;SDS011;23374;52.758;6.872;2023-05-10T13:37:55;5.57;;;3.43;;
37529;SDS011;23374;52.758;6.872;2023-05-10T13:40:17;5.70;;;3.57;;
37529;SDS011;23374;52.758;6.872;2023-05-10T13:42:37;7.33;;;3.90;;
37529;SDS011;23374;52.758;6.872;2023-05-10T13:44:58;6.63;;;3.70;;
37529;SDS011;23374;52.758;6.872;2023-05-10T13:47:19;7.27;;;3.43;;
37529;SDS011;23374;52.758;6.872;2023-05-10T13:49:41;4.80;;;3.13;;
37529;SDS011;23374;52.758;6.872;2023-05-10T13:52:02;8.03;;;3.67;;
37529;SDS011;23374;52.758;6.872;2023-05-10T13:54:26;9.40;;;3.63;;
37529;SDS011;23374;52.758;6.872;2023-05-10T13:56:49;6.80;;;4.37;;
37529;SDS011;23374;52.758;6.872;2023-05-10T13:59:09;7.60;;;4.37;;
37529;SDS011;23374;52.758;6.872;2023-05-10T14:01:30;8.17;;;4.77;;
37529;SDS011;23374;52.758;6.872;2023-05-10T14:03:50;5.67;;;3.80;;
37529;SDS011;23374;52.758;6.872;2023-05-10T14:06:11;6.90;;;3.57;;
37529;SDS011;23374;52.758;6.872;2023-05-10T14:08:31;5.43;;;3.13;;
37529;SDS011;23374;52.758;6.872;2023-05-10T14:10:51;6.20;;;3.80;;
37529;SDS011;23374;52.758;6.872;2023-05-10T14:13:12;6.80;;;3.90;;
37529;SDS011;23374;52.758;6.872;2023-05-10T14:15:33;9.93;;;4.40;;
37529;SDS011;23374;52.758;6.872;2023-05-10T14:17:53;9.53;;;4.33;;
37529;SDS011;23374;52.758;6.872;2023-05-10T14:20:13;10.40;;;4.60;;
37529;SDS011;23374;52.758;6.872;2023-05-10T14:22:34;7.67;;;3.83;;
37529;SDS011;23374;52.758;6.872;2023-05-10T14:24:54;8.43;;;3.70;;
37529;SDS011;23374;52.758;6.872;2023-05-10T14:27:15;6.30;;;3.57;;
37529;SDS011;23374;52.758;6.872;2023-05-10T14:29:35;6.67;;;3.23;;
37529;SDS011;23374;52.758;6.872;2023-05-10T14:31:55;5.57;;;3.07;;
37529;SDS011;23374;52.758;6.872;2023-05-10T14:34:16;4.80;;;2.90;;
37529;SDS011;23374;52.758;6.872;2023-05-10T14:36:36;5.20;;;2.63;;
37529;SDS011;23374;52.758;6.872;2023-05-10T14:38:57;6.30;;;3.33;;
37529;SDS011;23374;52.758;6.872;2023-05-10T14:41:18;4.90;;;2.40;;
37529;SDS011;23374;52.758;6.872;2023-05-10T14:43:38;4.97;;;2.50;;
37529;SDS011;23374;52.758;6.872;2023-05-10T14:45:59;6.23;;;2.67;;